createdAt,value
2023-05-19T00:01:20.343Z,4.68
2023-05-19T00:03:57.477Z,4.15
2023-05-19T00:06:26.822Z,4.18
2023-05-19T00:08:57.785Z,4.78
2023-05-19T00:11:26.906Z,4.80
2023-05-19T00:13:59.239Z,4.57
2023-05-19T00:16:28.545Z,4.97
2023-05-19T00:18:57.151Z,4.93
2023-05-19T00:21:24.270Z,4.85
2023-05-19T00:23:51.406Z,4.50
2023-05-19T00:26:18.723Z,4.88
2023-05-19T00:28:55.449Z,4.97
2023-05-19T00:31:22.516Z,4.80
2023-05-19T00:33:49.596Z,4.97
2023-05-19T00:36:16.696Z,4.95
2023-05-19T00:38:43.812Z,5.30
2023-05-19T00:41:11.030Z,5.38
2023-05-19T00:43:38.017Z,4.60
2023-05-19T00:46:05.414Z,5.05
2023-05-19T00:48:32.385Z,4.80
2023-05-19T00:51:04.921Z,4.80
2023-05-19T00:53:35.479Z,5.25
2023-05-19T00:56:03.472Z,6.63
2023-05-19T00:58:32.608Z,5.90
2023-05-19T01:01:04.482Z,5.97
2023-05-19T01:03:35.616Z,6.82
2023-05-19T01:06:07.200Z,6.82
2023-05-19T01:08:36.290Z,7.18
2023-05-19T01:11:05.043Z,7.90
2023-05-19T01:13:33.083Z,9.55
2023-05-19T01:16:15.209Z,7.93
2023-05-19T01:19:14.068Z,6.90
2023-05-19T01:21:47.915Z,7.82
2023-05-19T01:24:50.059Z,7.47
2023-05-19T01:27:50.817Z,7.60
2023-05-19T01:30:41.774Z,7.93
2023-05-19T01:33:14.228Z,8.10
2023-05-19T01:35:43.530Z,8.13
2023-05-19T01:38:11.939Z,8.38
2023-05-19T01:40:42.270Z,7.78
2023-05-19T01:43:12.518Z,9.10
2023-05-19T01:45:40.534Z,8.68
2023-05-19T01:48:10.605Z,8.75
2023-05-19T01:50:40.181Z,9.45
2023-05-19T01:53:07.873Z,9.50
2023-05-19T01:55:48.140Z,9.32
2023-05-19T01:58:31.087Z,10.30
2023-05-19T02:01:11.658Z,9.10
2023-05-19T02:04:03.543Z,10.60
2023-05-19T02:06:57.330Z,9.25
2023-05-19T02:09:41.017Z,9.82
2023-05-19T02:12:11.902Z,9.43
2023-05-19T02:14:52.890Z,10.02
2023-05-19T02:17:20.882Z,10.40
2023-05-19T02:19:48.032Z,10.32
2023-05-19T02:22:15.311Z,10.52
2023-05-19T02:24:42.543Z,10.45
2023-05-19T02:27:09.577Z,10.73
2023-05-19T02:29:36.553Z,10.30
2023-05-19T02:32:03.682Z,11.60
2023-05-19T02:34:30.748Z,11.63
2023-05-19T02:36:57.779Z,11.60
2023-05-19T02:39:24.810Z,12.77
2023-05-19T02:41:51.746Z,12.07
2023-05-19T02:44:18.750Z,11.90
2023-05-19T02:46:46.167Z,13.27
2023-05-19T02:49:13.240Z,13.32
2023-05-19T02:51:40.361Z,13.07
2023-05-19T02:54:07.553Z,13.55
2023-05-19T02:56:34.548Z,13.80
2023-05-19T02:59:01.667Z,13.48
2023-05-19T03:01:28.774Z,13.20
2023-05-19T03:03:55.794Z,13.38
2023-05-19T03:06:23.501Z,12.05
2023-05-19T03:08:51.060Z,12.77
2023-05-19T03:11:18.218Z,13.55
2023-05-19T03:13:45.274Z,13.70
2023-05-19T03:16:12.654Z,13.52
2023-05-19T03:18:39.863Z,13.02
2023-05-19T03:21:06.865Z,13.57
2023-05-19T03:23:33.823Z,13.48
2023-05-19T03:26:01.261Z,14.80
2023-05-19T03:28:28.495Z,13.75
2023-05-19T03:30:55.527Z,14.50
2023-05-19T03:33:29.885Z,14.57
2023-05-19T03:35:57.984Z,15.25
2023-05-19T03:38:26.968Z,14.98
2023-05-19T03:40:57.904Z,15.13
2023-05-19T03:43:25.082Z,15.63
2023-05-19T03:45:58.244Z,15.27
2023-05-19T03:48:51.846Z,16.20
2023-05-19T03:51:37.342Z,15.70
2023-05-19T03:54:17.728Z,15.05
2023-05-19T03:56:44.767Z,15.80
2023-05-19T03:59:12.326Z,17.10
2023-05-19T04:01:39.317Z,15.60
2023-05-19T04:04:06.340Z,17.15
2023-05-19T04:06:33.990Z,15.80
2023-05-19T04:09:02.476Z,17.45
2023-05-19T04:11:29.466Z,16.45
2023-05-19T04:13:56.541Z,16.73
2023-05-19T04:16:23.711Z,16.60
2023-05-19T04:18:50.926Z,16.35
2023-05-19T04:21:17.900Z,15.88
2023-05-19T04:23:44.865Z,16.00
2023-05-19T04:26:12.329Z,15.38
2023-05-19T04:28:42.328Z,15.52
2023-05-19T04:31:11.063Z,14.80
2023-05-19T04:33:39.320Z,11.73
2023-05-19T04:36:11.492Z,11.85
2023-05-19T04:38:40.758Z,12.98
2023-05-19T04:41:10.230Z,11.73
2023-05-19T04:43:41.895Z,11.52
2023-05-19T04:46:13.218Z,10.88
2023-05-19T04:48:41.790Z,11.95
2023-05-19T04:51:08.869Z,11.00
2023-05-19T04:53:36.654Z,11.23
2023-05-19T04:56:06.433Z,10.40
2023-05-19T04:58:34.120Z,9.30
2023-05-19T05:01:01.156Z,9.88
2023-05-19T05:03:31.077Z,9.75
2023-05-19T05:05:58.723Z,8.98
2023-05-19T05:08:25.863Z,8.90
2023-05-19T05:10:54.069Z,8.48
2023-05-19T05:13:23.946Z,8.05
2023-05-19T05:15:52.285Z,8.10
2023-05-19T05:18:19.793Z,7.65
2023-05-19T05:20:48.213Z,7.22
2023-05-19T05:23:16.687Z,6.68
2023-05-19T05:25:47.429Z,6.05
2023-05-19T05:28:16.116Z,7.20
2023-05-19T05:30:44.989Z,7.05
2023-05-19T05:33:14.120Z,6.60
2023-05-19T05:35:42.064Z,6.78
2023-05-19T05:38:11.655Z,7.28
2023-05-19T05:40:39.049Z,7.63
2023-05-19T05:43:06.361Z,7.10
2023-05-19T05:45:37.820Z,7.00
2023-05-19T05:48:06.139Z,7.07
2023-05-19T05:50:34.415Z,6.68
2023-05-19T05:53:06.542Z,6.75
2023-05-19T05:55:35.474Z,6.95
2023-05-19T05:58:03.657Z,7.15
2023-05-19T06:00:31.101Z,7.30
2023-05-19T06:02:59.218Z,7.75
2023-05-19T06:05:26.837Z,6.75
2023-05-19T06:07:54.678Z,7.15
2023-05-19T06:10:25.518Z,7.18
2023-05-19T06:12:54.815Z,6.85
2023-05-19T06:15:23.480Z,7.15
2023-05-19T06:18:16.671Z,7.85
2023-05-19T06:20:43.862Z,7.22
2023-05-19T06:23:11.054Z,6.88
2023-05-19T06:25:38.098Z,7.18
2023-05-19T06:28:06.045Z,6.55
2023-05-19T06:30:33.427Z,6.80
2023-05-19T06:33:14.902Z,7.00
2023-05-19T06:35:42.857Z,6.90
2023-05-19T06:38:10.229Z,7.20
2023-05-19T06:40:37.296Z,7.25
2023-05-19T06:43:04.951Z,6.43
2023-05-19T06:45:52.943Z,7.35
2023-05-19T06:48:19.909Z,6.63
2023-05-19T06:50:47.924Z,7.10
2023-05-19T06:53:16.705Z,5.50
2023-05-19T06:55:54.743Z,6.45
2023-05-19T06:58:27.198Z,7.13
2023-05-19T07:00:54.565Z,6.55
2023-05-19T07:03:22.051Z,5.70
2023-05-19T07:05:49.378Z,6.32
2023-05-19T07:08:16.407Z,5.80
2023-05-19T07:10:43.735Z,6.10
2023-05-19T07:13:13.610Z,6.05
2023-05-19T07:15:41.477Z,5.57
2023-05-19T07:18:08.652Z,6.03
2023-05-19T07:20:36.270Z,5.90
2023-05-19T07:23:05.382Z,6.97
2023-05-19T07:25:33.306Z,7.55
2023-05-19T07:28:00.643Z,8.55
2023-05-19T07:30:28.552Z,8.85
2023-05-19T07:32:56.023Z,7.53
2023-05-19T07:35:23.171Z,10.60
2023-05-19T07:37:51.667Z,6.75
2023-05-19T07:40:19.096Z,5.50
2023-05-19T07:42:46.079Z,6.57
2023-05-19T07:45:13.068Z,6.85
2023-05-19T07:47:40.082Z,6.63
2023-05-19T07:50:07.663Z,6.78
2023-05-19T07:52:34.695Z,8.65
2023-05-19T07:55:01.714Z,7.05
2023-05-19T07:57:28.694Z,6.32
2023-05-19T07:59:55.727Z,6.28
2023-05-19T08:02:22.861Z,6.20
2023-05-19T08:04:49.983Z,6.18
2023-05-19T08:07:17.075Z,5.88
2023-05-19T08:09:44.112Z,6.30
2023-05-19T08:12:11.404Z,6.40
2023-05-19T08:14:38.528Z,6.20
2023-05-19T08:17:05.590Z,6.22
2023-05-19T08:19:32.591Z,5.78
2023-05-19T08:22:01.217Z,5.60
2023-05-19T08:24:32.793Z,5.53
2023-05-19T08:27:00.016Z,6.05
2023-05-19T08:29:26.966Z,5.43
2023-05-19T08:31:54.185Z,5.90
2023-05-19T08:34:22.283Z,5.82
2023-05-19T08:36:49.470Z,5.50
2023-05-19T08:39:18.250Z,6.00
2023-05-19T08:41:45.276Z,6.30
2023-05-19T08:44:12.331Z,6.10
2023-05-19T08:46:39.478Z,5.70
2023-05-19T08:49:14.516Z,5.95
2023-05-19T08:51:50.566Z,5.97
2023-05-19T08:54:20.750Z,6.10
2023-05-19T08:56:48.410Z,5.97
2023-05-19T08:59:15.922Z,5.70
2023-05-19T09:01:46.566Z,6.78
2023-05-19T09:04:14.300Z,6.35
2023-05-19T09:06:42.260Z,6.45
2023-05-19T09:09:09.380Z,6.72
2023-05-19T09:11:37.713Z,5.75
2023-05-19T09:14:05.753Z,6.28
2023-05-19T09:16:34.106Z,7.13
2023-05-19T09:19:01.456Z,6.70
2023-05-19T09:21:32.381Z,6.75
2023-05-19T09:24:05.586Z,6.57
2023-05-19T09:26:43.013Z,6.57
2023-05-19T09:29:14.167Z,6.50
2023-05-19T09:31:51.805Z,6.65
2023-05-19T09:34:19.455Z,7.97
2023-05-19T09:36:49.680Z,6.78
2023-05-19T09:39:17.817Z,6.55
2023-05-19T09:41:45.508Z,6.25
2023-05-19T09:44:29.843Z,7.28
2023-05-19T09:46:58.363Z,7.43
2023-05-19T09:49:29.694Z,6.95
2023-05-19T09:52:02.295Z,7.55
2023-05-19T09:54:32.609Z,10.50
2023-05-19T09:57:05.194Z,20.95
2023-05-19T09:59:33.990Z,7.82
2023-05-19T10:02:02.317Z,6.97
2023-05-19T10:04:31.141Z,7.07
2023-05-19T10:07:05.699Z,8.60
2023-05-19T10:09:34.075Z,7.70
2023-05-19T10:12:02.390Z,7.68
2023-05-19T10:14:30.212Z,8.20
2023-05-19T10:16:59.502Z,8.30
2023-05-19T10:19:28.352Z,8.57
2023-05-19T10:21:56.241Z,8.50
2023-05-19T10:24:23.342Z,7.40
2023-05-19T10:26:56.705Z,7.68
2023-05-19T10:29:28.716Z,7.55
2023-05-19T10:31:59.468Z,7.18
2023-05-19T10:34:57.874Z,7.18
2023-05-19T10:37:43.027Z,7.57
2023-05-19T10:40:17.068Z,7.20
2023-05-19T10:43:14.638Z,7.80
2023-05-19T10:45:49.195Z,8.35
2023-05-19T10:48:17.078Z,8.32
2023-05-19T10:50:48.219Z,8.13
2023-05-19T10:53:22.077Z,8.63
2023-05-19T10:55:56.180Z,8.95
2023-05-19T10:58:45.186Z,8.82
2023-05-19T11:01:19.765Z,8.13
2023-05-19T11:03:54.490Z,9.30
2023-05-19T11:06:28.444Z,8.23
2023-05-19T11:09:15.888Z,8.60
2023-05-19T11:11:54.964Z,8.63
2023-05-19T11:14:27.481Z,9.18
2023-05-19T11:16:57.768Z,21.38
2023-05-19T11:19:30.469Z,18.45
2023-05-19T11:22:07.929Z,9.50
2023-05-19T11:24:37.441Z,9.32
2023-05-19T11:27:40.037Z,9.15
2023-05-19T11:30:08.197Z,10.05
2023-05-19T11:32:39.503Z,9.88
2023-05-19T11:35:07.837Z,9.80
2023-05-19T11:37:35.919Z,9.27
2023-05-19T11:40:07.565Z,9.95
2023-05-19T11:42:36.194Z,9.10
2023-05-19T11:45:04.397Z,9.93
2023-05-19T11:47:42.101Z,10.38
2023-05-19T11:50:14.574Z,9.70
2023-05-19T11:52:45.196Z,10.27
2023-05-19T11:55:16.599Z,9.85
2023-05-19T12:00:37.215Z,10.25
2023-05-19T12:03:04.742Z,9.15
2023-05-19T12:05:34.868Z,10.63
2023-05-19T12:08:03.410Z,9.77
2023-05-19T12:10:31.475Z,10.30
2023-05-19T12:12:59.843Z,9.60
2023-05-19T12:15:26.906Z,10.75
2023-05-19T12:17:58.911Z,9.95
2023-05-19T12:20:27.324Z,10.38
2023-05-19T12:22:58.023Z,9.65
2023-05-19T12:25:25.361Z,11.07
2023-05-19T12:27:57.502Z,10.38
2023-05-19T12:30:27.930Z,10.55
2023-05-19T12:32:58.415Z,9.85
2023-05-19T12:35:29.941Z,10.32
2023-05-19T12:37:57.727Z,10.98
2023-05-19T12:40:25.859Z,9.85
2023-05-19T12:42:58.825Z,10.93
2023-05-19T12:45:28.137Z,11.40
2023-05-19T12:47:56.185Z,12.57
2023-05-19T12:50:31.477Z,11.55
2023-05-19T12:52:59.943Z,11.77
2023-05-19T12:55:27.345Z,11.45
2023-05-19T12:57:57.249Z,11.13
2023-05-19T13:00:27.754Z,11.13
2023-05-19T13:03:10.004Z,11.27
2023-05-19T13:05:43.664Z,12.63
2023-05-19T13:08:12.750Z,11.70
2023-05-19T13:10:40.847Z,11.30
2023-05-19T13:13:08.897Z,11.75
2023-05-19T13:15:40.749Z,11.23
2023-05-19T13:18:09.435Z,11.82
2023-05-19T13:20:37.900Z,11.73
2023-05-19T13:23:05.802Z,11.35
2023-05-19T13:25:36.560Z,10.82
2023-05-19T13:28:05.797Z,11.77
2023-05-19T13:30:34.386Z,12.05
2023-05-19T13:33:02.024Z,11.18
2023-05-19T13:35:29.177Z,12.45
2023-05-19T13:37:56.238Z,12.02
2023-05-19T13:40:24.208Z,11.98
2023-05-19T13:42:51.326Z,14.20
2023-05-19T13:45:18.439Z,12.38
2023-05-19T13:47:45.526Z,11.98
2023-05-19T13:50:12.743Z,12.80
2023-05-19T13:52:39.857Z,12.27
2023-05-19T13:55:07.681Z,13.68
2023-05-19T13:57:35.366Z,13.40
2023-05-19T14:00:04.130Z,12.48
2023-05-19T14:02:40.757Z,12.90
2023-05-19T14:05:08.628Z,12.63
2023-05-19T14:07:36.008Z,13.07
2023-05-19T14:10:05.574Z,12.95
2023-05-19T14:12:45.097Z,12.98
2023-05-19T14:15:20.615Z,13.82
2023-05-19T14:17:49.063Z,13.07
2023-05-19T14:20:16.330Z,13.25
2023-05-19T14:22:43.310Z,13.75
2023-05-19T14:25:10.651Z,13.18
2023-05-19T14:27:39.918Z,12.07
2023-05-19T14:30:08.181Z,13.05
2023-05-19T14:32:36.017Z,21.75
2023-05-19T14:35:03.359Z,15.68
2023-05-19T14:37:31.918Z,12.20
2023-05-19T14:39:59.386Z,11.95
2023-05-19T14:42:26.436Z,13.20
2023-05-19T14:44:53.661Z,11.85
2023-05-19T14:47:20.653Z,11.80
2023-05-19T14:49:47.727Z,12.15
2023-05-19T14:52:14.761Z,12.20
2023-05-19T14:54:41.832Z,12.27
2023-05-19T14:57:09.002Z,12.35
2023-05-19T14:59:39.184Z,12.80
2023-05-19T15:02:06.336Z,13.30
2023-05-19T15:04:33.330Z,11.93
2023-05-19T15:09:30.204Z,11.65
2023-05-19T15:11:57.315Z,10.77
2023-05-19T15:14:24.366Z,11.95
2023-05-19T15:16:51.472Z,11.25
2023-05-19T15:19:18.688Z,10.93
2023-05-19T15:21:45.777Z,10.38
2023-05-19T15:24:12.814Z,12.20
2023-05-19T15:26:39.808Z,10.27
2023-05-19T15:29:06.793Z,10.25
2023-05-19T15:31:35.755Z,10.93
2023-05-19T15:34:04.434Z,9.80
2023-05-19T15:36:31.536Z,10.02
2023-05-19T15:38:58.649Z,9.40
2023-05-19T15:41:25.925Z,8.52
2023-05-19T15:43:53.659Z,8.50
2023-05-19T15:46:20.784Z,8.32
2023-05-19T15:48:47.850Z,8.18
2023-05-19T15:51:14.946Z,7.72
2023-05-19T15:53:42.025Z,8.30
2023-05-19T15:56:09.047Z,8.15
2023-05-19T15:58:36.016Z,7.72
2023-05-19T16:01:03.383Z,7.70
2023-05-19T16:03:30.767Z,9.05
2023-05-19T16:05:58.089Z,9.23
2023-05-19T16:08:25.734Z,11.13
2023-05-19T16:10:53.736Z,12.30
2023-05-19T16:13:20.966Z,9.57
2023-05-19T16:15:48.438Z,9.10
2023-05-19T16:18:18.638Z,9.85
2023-05-19T16:20:45.661Z,8.82
2023-05-19T16:23:12.609Z,10.05
2023-05-19T16:25:39.744Z,8.82
2023-05-19T16:28:06.755Z,8.75
2023-05-19T16:30:34.020Z,8.82
2023-05-19T16:33:01.622Z,8.77
2023-05-19T16:35:29.548Z,8.98
2023-05-19T16:37:56.734Z,9.88
2023-05-19T16:40:23.896Z,8.70
2023-05-19T16:42:53.575Z,8.27
2023-05-19T16:45:20.869Z,9.38
2023-05-19T16:47:48.074Z,10.23
2023-05-19T16:50:15.297Z,8.95
2023-05-19T16:52:42.456Z,9.70
2023-05-19T16:55:09.773Z,10.05
2023-05-19T16:57:36.817Z,10.43
2023-05-19T17:00:04.129Z,10.70
2023-05-19T17:02:31.909Z,10.95
2023-05-19T17:04:59.079Z,11.32
2023-05-19T17:07:27.877Z,12.52
2023-05-19T17:09:56.072Z,12.85
2023-05-19T17:12:23.294Z,14.38
2023-05-19T17:14:52.058Z,14.40
2023-05-19T17:17:19.161Z,14.55
2023-05-19T17:19:46.802Z,13.23
2023-05-19T17:22:13.993Z,13.13
2023-05-19T17:24:41.361Z,12.90
2023-05-19T17:27:08.573Z,12.27
2023-05-19T17:29:36.864Z,13.00
2023-05-19T17:32:04.498Z,11.80
2023-05-19T17:34:31.492Z,11.57
2023-05-19T17:36:58.451Z,11.18
2023-05-19T17:39:25.577Z,11.75
2023-05-19T17:41:52.674Z,11.32
2023-05-19T17:44:19.758Z,11.27
2023-05-19T17:46:46.781Z,11.63
2023-05-19T17:49:14.304Z,11.75
2023-05-19T17:51:41.699Z,11.77
2023-05-19T17:54:08.965Z,11.60
2023-05-19T17:56:40.819Z,11.18
2023-05-19T17:59:08.290Z,11.63
2023-05-19T18:01:35.708Z,11.02
2023-05-19T18:04:03.888Z,10.75
2023-05-19T18:06:32.262Z,10.30
2023-05-19T18:09:01.239Z,10.45
2023-05-19T18:11:28.656Z,9.82
2023-05-19T18:13:56.848Z,10.25
2023-05-19T18:16:23.971Z,11.05
2023-05-19T18:18:51.206Z,12.07
2023-05-19T18:21:18.529Z,11.85
2023-05-19T18:23:46.387Z,11.35
2023-05-19T18:26:13.579Z,11.25
2023-05-19T18:28:41.505Z,11.30
2023-05-19T18:31:17.416Z,11.85
2023-05-19T18:33:45.752Z,11.25
2023-05-19T18:36:15.372Z,12.23
2023-05-19T18:38:42.456Z,11.13
2023-05-19T18:41:09.533Z,10.40
2023-05-19T18:43:36.511Z,11.23
2023-05-19T18:46:03.470Z,11.18
2023-05-19T18:48:31.317Z,12.18
2023-05-19T18:50:58.253Z,12.13
2023-05-19T18:53:25.665Z,12.45
2023-05-19T18:55:52.573Z,12.48
2023-05-19T18:58:19.581Z,12.13
2023-05-19T19:00:47.264Z,11.88
2023-05-19T19:03:14.993Z,13.48
2023-05-19T19:05:43.214Z,12.70
2023-05-19T19:08:10.158Z,13.25
2023-05-19T19:10:40.662Z,13.13
2023-05-19T19:13:07.847Z,12.88
2023-05-19T19:15:34.884Z,13.02
2023-05-19T19:18:02.213Z,12.60
2023-05-19T19:20:29.379Z,12.95
2023-05-19T19:22:56.905Z,12.77
2023-05-19T19:25:24.006Z,14.52
2023-05-19T19:27:51.244Z,13.05
2023-05-19T19:30:18.422Z,13.88
2023-05-19T19:32:45.579Z,14.23
2023-05-19T19:35:12.689Z,14.57
2023-05-19T19:37:39.643Z,16.10
2023-05-19T19:40:07.182Z,15.30
2023-05-19T19:42:34.495Z,14.55
2023-05-19T19:45:01.692Z,16.15
2023-05-19T19:47:29.184Z,13.65
2023-05-19T19:49:56.443Z,15.15
2023-05-19T19:52:23.649Z,15.93
2023-05-19T19:54:51.173Z,15.57
2023-05-19T19:57:18.443Z,17.10
2023-05-19T19:59:45.664Z,16.30
2023-05-19T20:02:12.730Z,17.98
2023-05-19T20:04:39.905Z,16.30
2023-05-19T20:07:06.975Z,17.40
2023-05-19T20:09:34.035Z,16.80
2023-05-19T20:12:01.196Z,18.30
2023-05-19T20:14:28.244Z,18.45
2023-05-19T20:16:55.233Z,19.17
2023-05-19T20:19:27.888Z,17.88
2023-05-19T20:21:55.015Z,19.88
2023-05-19T20:24:22.060Z,19.35
2023-05-19T20:26:49.128Z,19.55
2023-05-19T20:29:16.800Z,17.80
2023-05-19T20:31:45.411Z,17.65
2023-05-19T20:34:12.481Z,15.40
2023-05-19T20:36:39.459Z,15.93
2023-05-19T20:39:07.061Z,15.93
2023-05-19T20:41:34.033Z,16.00
2023-05-19T20:44:01.196Z,17.85
2023-05-19T20:46:28.463Z,19.25
2023-05-19T20:48:55.649Z,19.00
2023-05-19T20:51:25.116Z,19.13
2023-05-19T20:53:52.209Z,19.05
2023-05-19T20:56:24.747Z,18.02
2023-05-19T20:58:51.700Z,19.42
2023-05-19T21:01:18.733Z,19.65
2023-05-19T21:03:45.776Z,19.25
2023-05-19T21:06:12.851Z,19.52
2023-05-19T21:08:39.760Z,19.55
2023-05-19T21:11:06.785Z,20.90
2023-05-19T21:13:33.951Z,29.42
2023-05-19T21:16:00.982Z,37.53
2023-05-19T21:18:28.715Z,21.13
2023-05-19T21:20:55.658Z,23.02
2023-05-19T21:23:22.707Z,19.08
2023-05-19T21:25:50.614Z,20.00
2023-05-19T21:28:17.603Z,20.45
2023-05-19T21:30:49.197Z,20.48
2023-05-19T21:33:16.636Z,20.48
2023-05-19T21:35:45.547Z,19.80
2023-05-19T21:38:23.304Z,20.17
2023-05-19T21:40:51.824Z,19.88
2023-05-19T21:43:22.498Z,21.15
2023-05-19T21:45:49.535Z,20.30
2023-05-19T21:48:16.683Z,20.50
2023-05-19T21:50:43.762Z,20.13
2023-05-19T21:53:10.817Z,19.40
2023-05-19T21:55:37.873Z,20.95
2023-05-19T21:58:04.930Z,18.67
2023-05-19T22:00:32.103Z,18.50
2023-05-19T22:02:59.419Z,18.52
2023-05-19T22:05:26.579Z,18.15
2023-05-19T22:07:53.680Z,16.83
2023-05-19T22:10:20.841Z,17.23
2023-05-19T22:12:47.807Z,16.45
2023-05-19T22:15:15.920Z,17.20
2023-05-19T22:17:43.063Z,16.08
2023-05-19T22:20:10.568Z,17.25
2023-05-19T22:22:37.513Z,16.17
2023-05-19T22:25:05.001Z,16.85
2023-05-19T22:27:32.086Z,14.57
2023-05-19T22:29:59.723Z,14.75
2023-05-19T22:32:26.827Z,16.40
2023-05-19T22:34:53.984Z,14.95
2023-05-19T22:37:22.895Z,13.02
2023-05-19T22:39:49.869Z,13.88
2023-05-19T22:42:16.811Z,12.52
2023-05-19T22:44:43.955Z,12.05
2023-05-19T22:47:13.622Z,11.93
2023-05-19T22:49:41.546Z,12.90
2023-05-19T22:52:10.452Z,11.85
2023-05-19T22:54:38.061Z,10.98
2023-05-19T22:57:05.495Z,10.85
2023-05-19T22:59:32.595Z,11.15
2023-05-19T23:01:59.530Z,11.18
2023-05-19T23:04:26.538Z,11.30
2023-05-19T23:06:53.566Z,11.80
2023-05-19T23:09:21.832Z,12.45
2023-05-19T23:11:48.888Z,11.77
2023-05-19T23:14:15.956Z,10.88
2023-05-19T23:16:43.002Z,12.68
2023-05-19T23:19:10.101Z,10.93
2023-05-19T23:21:37.068Z,11.85
2023-05-19T23:24:04.878Z,12.65
2023-05-19T23:26:31.855Z,12.90
2023-05-19T23:28:58.838Z,13.35
2023-05-19T23:31:25.986Z,12.40
2023-05-19T23:33:54.174Z,12.30
2023-05-19T23:36:21.223Z,12.30
2023-05-19T23:38:48.277Z,12.25
2023-05-19T23:41:15.229Z,11.80
2023-05-19T23:43:42.163Z,11.52
2023-05-19T23:46:09.260Z,11.60
2023-05-19T23:48:36.678Z,12.43
2023-05-19T23:51:03.759Z,7.78
2023-05-19T23:53:30.782Z,12.23
2023-05-19T23:55:58.758Z,11.93
2023-05-19T23:58:26.025Z,12.07
